< < Back
Terminal Aerodrome Forecast


Current Version              Previous Versions:   1  2  3  4  5  6  7  8  9  

Terminal Aerodrome Forecast

313
FTUS42 KGSP 052321
TAFHKY
TAF
KHKY 052321Z 0600/0624 35009KT P6SM -SHRA OVC040
     FM060300 32007KT P6SM -SHRA OVC030
     FM060700 31007KT P6SM VCSH OVC045
     FM061500 34014G22KT P6SM BKN050 PROB30 0616/0621 -SHRA OVC045=

Latest METAR

554
SAUS70 KWBC 060300 RRE
MTRHKY
METAR KHKY 060253Z AUTO 30005KT 10SM -RA OVC050 08/06 A2975 RMK AO2
SLP061 P0005 60014 T00780061 51008


USA.gov is the U.S. government's official web portal to all federal, state and local government web resources and services.